sensor_id;sensor_type;location;lat;lon;timestamp;pressure;altitude;pressure_sealevel;temperature;humidity
20160;BME280;50187;50.492;12.134;2023-04-09T00:00:27;98360.63;;;19.91;31.45
20160;BME280;50187;50.492;12.134;2023-04-09T00:03:13;98354.38;;;19.90;31.31
20160;BME280;50187;50.492;12.134;2023-04-09T00:05:58;98352.41;;;19.93;31.37
20160;BME280;50187;50.492;12.134;2023-04-09T00:08:44;98368.19;;;19.97;31.45
20160;BME280;50187;50.492;12.134;2023-04-09T00:11:29;98366.75;;;19.93;31.38
20160;BME280;50187;50.492;12.134;2023-04-09T00:14:14;98357.06;;;19.90;31.45
20160;BME280;50187;50.492;12.134;2023-04-09T00:16:59;98365.47;;;19.87;31.38
20160;BME280;50187;50.492;12.134;2023-04-09T00:19:45;98356.09;;;19.92;31.46
20160;BME280;50187;50.492;12.134;2023-04-09T00:22:30;98343.28;;;19.84;31.51
20160;BME280;50187;50.492;12.134;2023-04-09T00:25:15;98350.09;;;19.88;31.46
20160;BME280;50187;50.492;12.134;2023-04-09T00:28:00;98375.44;;;19.97;31.34
20160;BME280;50187;50.492;12.134;2023-04-09T00:30:46;98367.59;;;19.94;31.42
20160;BME280;50187;50.492;12.134;2023-04-09T00:33:31;98364.63;;;19.97;31.25
20160;BME280;50187;50.492;12.134;2023-04-09T00:36:17;98366.59;;;19.95;31.31
20160;BME280;50187;50.492;12.134;2023-04-09T00:39:02;98367.03;;;19.90;31.43
20160;BME280;50187;50.492;12.134;2023-04-09T00:41:47;98332.19;;;19.77;31.59
20160;BME280;50187;50.492;12.134;2023-04-09T00:44:33;98374.00;;;19.93;31.53
20160;BME280;50187;50.492;12.134;2023-04-09T00:47:18;98428.13;;;19.91;31.48
20160;BME280;50187;50.492;12.134;2023-04-09T00:50:05;98393.91;;;19.92;31.41
20160;BME280;50187;50.492;12.134;2023-04-09T00:52:50;98388.50;;;19.92;31.44
20160;BME280;50187;50.492;12.134;2023-04-09T00:55:38;98406.66;;;19.89;31.40
20160;BME280;50187;50.492;12.134;2023-04-09T00:58:24;98404.84;;;19.90;31.51
20160;BME280;50187;50.492;12.134;2023-04-09T01:01:09;98385.31;;;19.77;31.32
20160;BME280;50187;50.492;12.134;2023-04-09T01:03:54;98402.97;;;19.81;31.47
20160;BME280;50187;50.492;12.134;2023-04-09T01:06:50;98401.25;;;19.89;31.58
20160;BME280;50187;50.492;12.134;2023-04-09T01:13:06;98402.28;;;19.88;31.57
20160;BME280;50187;50.492;12.134;2023-04-09T01:15:55;98404.41;;;19.85;31.45
20160;BME280;50187;50.492;12.134;2023-04-09T01:18:51;98404.09;;;19.88;31.40
20160;BME280;50187;50.492;12.134;2023-04-09T01:21:43;98381.91;;;19.74;31.44
20160;BME280;50187;50.492;12.134;2023-04-09T01:27:38;98393.75;;;19.83;31.61
20160;BME280;50187;50.492;12.134;2023-04-09T01:30:28;98393.75;;;19.83;31.73
20160;BME280;50187;50.492;12.134;2023-04-09T01:33:14;98398.44;;;19.81;31.53
20160;BME280;50187;50.492;12.134;2023-04-09T01:36:01;98380.78;;;19.77;31.40
20160;BME280;50187;50.492;12.134;2023-04-09T01:38:49;98388.63;;;19.80;31.64
20160;BME280;50187;50.492;12.134;2023-04-09T01:41:38;98397.13;;;19.85;31.47
20160;BME280;50187;50.492;12.134;2023-04-09T01:44:25;98370.13;;;19.76;31.56
20160;BME280;50187;50.492;12.134;2023-04-09T01:47:11;98390.00;;;19.74;31.51
20160;BME280;50187;50.492;12.134;2023-04-09T01:49:57;98390.53;;;19.59;31.65
20160;BME280;50187;50.492;12.134;2023-04-09T01:52:43;98381.75;;;19.76;31.50
20160;BME280;50187;50.492;12.134;2023-04-09T01:55:28;98398.16;;;19.84;31.46
20160;BME280;50187;50.492;12.134;2023-04-09T01:58:14;98391.56;;;19.77;31.46
20160;BME280;50187;50.492;12.134;2023-04-09T02:01:05;98379.63;;;19.70;31.62
20160;BME280;50187;50.492;12.134;2023-04-09T02:03:55;98390.84;;;19.75;31.48
20160;BME280;50187;50.492;12.134;2023-04-09T02:06:59;98401.84;;;19.83;31.48
20160;BME280;50187;50.492;12.134;2023-04-09T02:09:52;98399.69;;;19.77;31.65
20160;BME280;50187;50.492;12.134;2023-04-09T02:12:42;98407.53;;;19.80;31.66
20160;BME280;50187;50.492;12.134;2023-04-09T02:15:33;98399.94;;;19.74;31.61
20160;BME280;50187;50.492;12.134;2023-04-09T02:18:25;98411.66;;;19.84;31.46
20160;BME280;50187;50.492;12.134;2023-04-09T02:21:14;98413.75;;;19.81;31.66
20160;BME280;50187;50.492;12.134;2023-04-09T02:23:59;98420.59;;;19.85;31.37
20160;BME280;50187;50.492;12.134;2023-04-09T02:26:44;98410.09;;;19.82;31.49
20160;BME280;50187;50.492;12.134;2023-04-09T02:29:30;98400.94;;;19.73;31.65
20160;BME280;50187;50.492;12.134;2023-04-09T02:32:15;98397.22;;;19.74;31.61
20160;BME280;50187;50.492;12.134;2023-04-09T02:35:00;98416.31;;;19.82;31.46
20160;BME280;50187;50.492;12.134;2023-04-09T02:37:46;98418.75;;;19.85;31.43
20160;BME280;50187;50.492;12.134;2023-04-09T02:40:32;98403.09;;;19.79;31.70
20160;BME280;50187;50.492;12.134;2023-04-09T02:43:17;98443.00;;;19.76;31.47
20160;BME280;50187;50.492;12.134;2023-04-09T02:46:02;98400.66;;;19.76;31.54
20160;BME280;50187;50.492;12.134;2023-04-09T02:48:48;98411.94;;;19.81;31.63
20160;BME280;50187;50.492;12.134;2023-04-09T02:51:34;98407.22;;;19.83;31.50
20160;BME280;50187;50.492;12.134;2023-04-09T02:54:20;98399.81;;;19.76;31.51
20160;BME280;50187;50.492;12.134;2023-04-09T02:57:05;98420.25;;;19.78;31.52
20160;BME280;50187;50.492;12.134;2023-04-09T02:59:51;98405.66;;;19.81;31.68
20160;BME280;50187;50.492;12.134;2023-04-09T03:02:36;98401.97;;;19.82;31.43
20160;BME280;50187;50.492;12.134;2023-04-09T03:05:22;98391.56;;;19.77;31.53
20160;BME280;50187;50.492;12.134;2023-04-09T03:08:07;98397.41;;;19.82;31.48
20160;BME280;50187;50.492;12.134;2023-04-09T03:10:53;98404.81;;;19.80;31.59
20160;BME280;50187;50.492;12.134;2023-04-09T03:13:38;98396.97;;;19.77;31.57
20160;BME280;50187;50.492;12.134;2023-04-09T03:16:24;98381.03;;;19.74;31.67
20160;BME280;50187;50.492;12.134;2023-04-09T03:19:10;98404.19;;;19.77;31.69
20160;BME280;50187;50.492;12.134;2023-04-09T03:21:56;98406.66;;;19.80;31.48
20160;BME280;50187;50.492;12.134;2023-04-09T03:24:44;98383.47;;;19.67;31.59
20160;BME280;50187;50.492;12.134;2023-04-09T03:27:31;98390.72;;;19.77;31.67
20160;BME280;50187;50.492;12.134;2023-04-09T03:30:19;98407.63;;;19.79;31.53
20160;BME280;50187;50.492;12.134;2023-04-09T03:33:04;98391.84;;;19.74;31.67
20160;BME280;50187;50.492;12.134;2023-04-09T03:35:55;98391.13;;;19.72;31.67
20160;BME280;50187;50.492;12.134;2023-04-09T03:38:51;98384.03;;;19.71;31.59
20160;BME280;50187;50.492;12.134;2023-04-09T03:41:45;98388.72;;;19.69;31.60
20160;BME280;50187;50.492;12.134;2023-04-09T03:44:33;98397.97;;;19.76;31.58
20160;BME280;50187;50.492;12.134;2023-04-09T03:47:31;98398.94;;;19.75;31.64
20160;BME280;50187;50.492;12.134;2023-04-09T03:50:17;98384.47;;;19.76;31.61
20160;BME280;50187;50.492;12.134;2023-04-09T03:53:08;98396.25;;;19.75;31.47
20160;BME280;50187;50.492;12.134;2023-04-09T03:55:55;98394.28;;;19.77;31.41
20160;BME280;50187;50.492;12.134;2023-04-09T03:58:43;98396.38;;;19.73;31.73
20160;BME280;50187;50.492;12.134;2023-04-09T04:01:31;98377.78;;;19.70;31.56
20160;BME280;50187;50.492;12.134;2023-04-09T04:04:18;98389.13;;;19.74;31.52
20160;BME280;50187;50.492;12.134;2023-04-09T04:07:12;98394.41;;;19.76;31.52
20160;BME280;50187;50.492;12.134;2023-04-09T04:10:05;98396.66;;;19.70;31.59
20160;BME280;50187;50.492;12.134;2023-04-09T04:12:51;98405.06;;;19.77;31.52
20160;BME280;50187;50.492;12.134;2023-04-09T04:15:42;98408.75;;;19.76;31.46
20160;BME280;50187;50.492;12.134;2023-04-09T04:18:30;98403.78;;;19.71;31.69
20160;BME280;50187;50.492;12.134;2023-04-09T04:21:16;98419.56;;;19.76;31.54
20160;BME280;50187;50.492;12.134;2023-04-09T04:24:07;98400.66;;;19.76;31.57
20160;BME280;50187;50.492;12.134;2023-04-09T04:26:53;98422.97;;;19.78;31.51
20160;BME280;50187;50.492;12.134;2023-04-09T04:29:39;98415.13;;;19.75;31.53
20160;BME280;50187;50.492;12.134;2023-04-09T04:32:38;98402.63;;;19.74;31.46
20160;BME280;50187;50.492;12.134;2023-04-09T04:35:27;98429.13;;;19.80;31.59
20160;BME280;50187;50.492;12.134;2023-04-09T04:38:16;98417.16;;;19.73;31.55
20160;BME280;50187;50.492;12.134;2023-04-09T04:41:02;98418.72;;;19.76;31.67
20160;BME280;50187;50.492;12.134;2023-04-09T04:43:50;98420.41;;;19.77;31.51
20160;BME280;50187;50.492;12.134;2023-04-09T04:46:39;98408.03;;;19.74;31.62
20160;BME280;50187;50.492;12.134;2023-04-09T04:49:25;98419.41;;;19.78;31.47
20160;BME280;50187;50.492;12.134;2023-04-09T04:52:10;98424.13;;;19.76;31.42
20160;BME280;50187;50.492;12.134;2023-04-09T04:55:01;98433.06;;;19.76;31.46
20160;BME280;50187;50.492;12.134;2023-04-09T04:57:46;98437.03;;;19.72;31.57
20160;BME280;50187;50.492;12.134;2023-04-09T05:00:31;98419.84;;;19.73;31.62
20160;BME280;50187;50.492;12.134;2023-04-09T05:03:19;98443.31;;;19.82;31.54
20160;BME280;50187;50.492;12.134;2023-04-09T05:06:13;98448.19;;;19.88;31.50
20160;BME280;50187;50.492;12.134;2023-04-09T05:09:00;98421.13;;;19.79;31.29
20160;BME280;50187;50.492;12.134;2023-04-09T05:11:55;98448.75;;;20.02;31.42
20160;BME280;50187;50.492;12.134;2023-04-09T05:14:41;98457.59;;;20.14;31.29
20160;BME280;50187;50.492;12.134;2023-04-09T05:17:27;98460.72;;;20.19;31.06
20160;BME280;50187;50.492;12.134;2023-04-09T05:20:12;98480.91;;;20.24;30.89
20160;BME280;50187;50.492;12.134;2023-04-09T05:23:09;98463.03;;;20.23;31.14
20160;BME280;50187;50.492;12.134;2023-04-09T05:26:00;98450.06;;;20.27;31.04
20160;BME280;50187;50.492;12.134;2023-04-09T05:29:02;98443.53;;;20.30;31.08
20160;BME280;50187;50.492;12.134;2023-04-09T05:31:49;98451.94;;;20.36;31.01
20160;BME280;50187;50.492;12.134;2023-04-09T05:34:56;98461.88;;;20.36;30.90
20160;BME280;50187;50.492;12.134;2023-04-09T05:37:44;98452.47;;;20.30;30.99
20160;BME280;50187;50.492;12.134;2023-04-09T05:40:29;98446.09;;;20.31;30.76
20160;BME280;50187;50.492;12.134;2023-04-09T05:43:15;98480.63;;;20.47;30.66
20160;BME280;50187;50.492;12.134;2023-04-09T05:46:01;98455.63;;;20.45;30.72
20160;BME280;50187;50.492;12.134;2023-04-09T05:48:47;98472.53;;;20.47;30.76
20160;BME280;50187;50.492;12.134;2023-04-09T05:51:32;98453.91;;;20.44;30.59
20160;BME280;50187;50.492;12.134;2023-04-09T05:54:18;98454.19;;;20.51;30.73
20160;BME280;50187;50.492;12.134;2023-04-09T05:57:04;98454.19;;;20.51;30.73
20160;BME280;50187;50.492;12.134;2023-04-09T05:59:53;98461.56;;;20.49;30.71
20160;BME280;50187;50.492;12.134;2023-04-09T06:02:40;98455.03;;;20.51;30.57
20160;BME280;50187;50.492;12.134;2023-04-09T06:05:26;98440.38;;;20.44;30.73
20160;BME280;50187;50.492;12.134;2023-04-09T06:08:12;98453.06;;;20.53;30.55
20160;BME280;50187;50.492;12.134;2023-04-09T06:10:58;98465.84;;;20.51;30.78
20160;BME280;50187;50.492;12.134;2023-04-09T06:13:43;98457.72;;;20.51;30.84
20160;BME280;50187;50.492;12.134;2023-04-09T06:16:28;98470.41;;;20.51;30.80
20160;BME280;50187;50.492;12.134;2023-04-09T06:19:17;98474.94;;;20.50;30.68
20160;BME280;50187;50.492;12.134;2023-04-09T06:22:02;98466.13;;;20.48;30.88
20160;BME280;50187;50.492;12.134;2023-04-09T06:24:48;98463.28;;;20.50;30.87
20160;BME280;50187;50.492;12.134;2023-04-09T06:27:33;98456.03;;;20.50;30.73
20160;BME280;50187;50.492;12.134;2023-04-09T06:30:18;98475.81;;;20.51;30.73
20160;BME280;50187;50.492;12.134;2023-04-09T06:33:03;98463.88;;;20.53;30.67
20160;BME280;50187;50.492;12.134;2023-04-09T06:35:49;98465.56;;;20.54;30.76
20160;BME280;50187;50.492;12.134;2023-04-09T06:38:34;98472.66;;;20.55;30.79
20160;BME280;50187;50.492;12.134;2023-04-09T06:41:23;98474.69;;;20.53;30.73
20160;BME280;50187;50.492;12.134;2023-04-09T06:44:08;98482.63;;;20.55;30.66
20160;BME280;50187;50.492;12.134;2023-04-09T06:46:53;98471.97;;;20.53;30.72
20160;BME280;50187;50.492;12.134;2023-04-09T06:49:39;98471.25;;;20.51;30.71
20160;BME280;50187;50.492;12.134;2023-04-09T06:52:24;98483.78;;;20.52;30.71
20160;BME280;50187;50.492;12.134;2023-04-09T06:55:09;98498.56;;;20.58;30.80
20160;BME280;50187;50.492;12.134;2023-04-09T06:57:55;98479.34;;;20.61;30.70
20160;BME280;50187;50.492;12.134;2023-04-09T07:00:40;98461.56;;;20.49;30.72
20160;BME280;50187;50.492;12.134;2023-04-09T07:03:26;98487.63;;;20.59;30.67
20160;BME280;50187;50.492;12.134;2023-04-09T07:06:12;98478.06;;;20.55;30.45
20160;BME280;50187;50.492;12.134;2023-04-09T07:08:57;98471.41;;;20.59;30.82
20160;BME280;50187;50.492;12.134;2023-04-09T07:11:43;98476.66;;;20.61;30.63
20160;BME280;50187;50.492;12.134;2023-04-09T07:14:28;98456.47;;;20.55;30.43
20160;BME280;50187;50.492;12.134;2023-04-09T07:17:13;98467.69;;;20.61;30.54
20160;BME280;50187;50.492;12.134;2023-04-09T07:19:58;98490.59;;;20.56;30.75
20160;BME280;50187;50.492;12.134;2023-04-09T07:22:43;98487.63;;;20.59;30.63
20160;BME280;50187;50.492;12.134;2023-04-09T07:25:28;98452.06;;;20.35;30.53
20160;BME280;50187;50.492;12.134;2023-04-09T07:28:14;98482.94;;;20.62;30.55
20160;BME280;50187;50.492;12.134;2023-04-09T07:31:00;98483.47;;;20.55;30.68
20160;BME280;50187;50.492;12.134;2023-04-09T07:33:48;98497.00;;;20.55;30.68
20160;BME280;50187;50.492;12.134;2023-04-09T07:36:33;98496.31;;;20.53;30.71
20160;BME280;50187;50.492;12.134;2023-04-09T07:39:19;98499.69;;;20.55;30.81
20160;BME280;50187;50.492;12.134;2023-04-09T07:42:05;98505.09;;;20.46;30.78
20160;BME280;50187;50.492;12.134;2023-04-09T07:44:50;98492.31;;;20.48;30.82
20160;BME280;50187;50.492;12.134;2023-04-09T07:47:37;98507.25;;;20.52;30.74
20160;BME280;50187;50.492;12.134;2023-04-09T07:50:24;98504.66;;;20.50;30.65
20160;BME280;50187;50.492;12.134;2023-04-09T07:53:10;98500.28;;;20.49;30.71
20160;BME280;50187;50.492;12.134;2023-04-09T07:55:55;98514.19;;;20.54;30.63
20160;BME280;50187;50.492;12.134;2023-04-09T07:58:41;98503.38;;;20.54;30.88
20160;BME280;50187;50.492;12.134;2023-04-09T08:01:26;98504.81;;;20.58;30.74
20160;BME280;50187;50.492;12.134;2023-04-09T08:04:11;98508.25;;;20.61;30.64
20160;BME280;50187;50.492;12.134;2023-04-09T08:06:57;98508.25;;;20.61;30.83
20160;BME280;50187;50.492;12.134;2023-04-09T08:09:43;98514.34;;;20.63;30.65
20160;BME280;50187;50.492;12.134;2023-04-09T08:12:28;98489.72;;;20.66;30.58
20160;BME280;50187;50.492;12.134;2023-04-09T08:15:13;98509.13;;;20.71;30.61
20160;BME280;50187;50.492;12.134;2023-04-09T08:17:59;98491.44;;;20.67;30.68
20160;BME280;50187;50.492;12.134;2023-04-09T08:20:47;98497.88;;;20.75;30.67
20160;BME280;50187;50.492;12.134;2023-04-09T08:23:32;98488.06;;;20.74;30.63
20160;BME280;50187;50.492;12.134;2023-04-09T08:26:18;98490.34;;;20.79;30.60
20160;BME280;50187;50.492;12.134;2023-04-09T08:29:03;98484.94;;;20.79;30.59
20160;BME280;50187;50.492;12.134;2023-04-09T08:31:49;98475.97;;;20.79;30.72
20160;BME280;50187;50.492;12.134;2023-04-09T08:34:34;98457.31;;;20.75;30.49
20160;BME280;50187;50.492;12.134;2023-04-09T08:37:19;98476.22;;;20.85;30.48
20160;BME280;50187;50.492;12.134;2023-04-09T08:40:05;98464.13;;;20.89;30.38
20160;BME280;50187;50.492;12.134;2023-04-09T08:42:54;98478.22;;;20.93;30.39
20160;BME280;50187;50.492;12.134;2023-04-09T08:45:41;98487.75;;;20.97;30.35
20160;BME280;50187;50.492;12.134;2023-04-09T08:48:26;98476.34;;;21.03;30.17
20160;BME280;50187;50.492;12.134;2023-04-09T08:51:13;98479.34;;;21.00;30.38
20160;BME280;50187;50.492;12.134;2023-04-09T08:54:00;98497.44;;;21.00;30.52
20160;BME280;50187;50.492;12.134;2023-04-09T08:56:48;98490.59;;;20.96;30.49
20160;BME280;50187;50.492;12.134;2023-04-09T08:59:33;98479.34;;;21.00;30.46
20160;BME280;50187;50.492;12.134;2023-04-09T09:02:21;98487.31;;;21.02;30.44
20160;BME280;50187;50.492;12.134;2023-04-09T09:05:08;98480.63;;;20.96;30.62
20160;BME280;50187;50.492;12.134;2023-04-09T09:07:53;98484.31;;;21.05;30.31
20160;BME280;50187;50.492;12.134;2023-04-09T09:10:40;98478.34;;;21.11;30.47
20160;BME280;50187;50.492;12.134;2023-04-09T09:13:26;98455.41;;;21.15;30.34
20160;BME280;50187;50.492;12.134;2023-04-09T09:16:13;98456.25;;;21.16;30.43
20160;BME280;50187;50.492;12.134;2023-04-09T09:19:00;98460.91;;;21.23;30.31
20160;BME280;50187;50.492;12.134;2023-04-09T09:21:54;98464.78;;;21.21;30.43
20160;BME280;50187;50.492;12.134;2023-04-09T09:24:46;98466.34;;;21.14;30.52
20160;BME280;50187;50.492;12.134;2023-04-09T09:27:36;98450.84;;;21.06;30.47
20160;BME280;50187;50.492;12.134;2023-04-09T09:30:25;98459.78;;;21.16;30.55
20160;BME280;50187;50.492;12.134;2023-04-09T09:33:11;98455.47;;;21.23;30.37
20160;BME280;50187;50.492;12.134;2023-04-09T09:35:56;98455.31;;;21.35;30.35
20160;BME280;50187;50.492;12.134;2023-04-09T09:38:53;98460.56;;;21.36;30.50
20160;BME280;50187;50.492;12.134;2023-04-09T09:41:40;98451.59;;;21.36;30.23
20160;BME280;50187;50.492;12.134;2023-04-09T09:44:30;98459.41;;;21.39;30.20
20160;BME280;50187;50.492;12.134;2023-04-09T09:47:17;98441.34;;;21.39;30.07
20160;BME280;50187;50.492;12.134;2023-04-09T09:50:04;98446.59;;;21.41;30.16
20160;BME280;50187;50.492;12.134;2023-04-09T09:52:50;98445.63;;;21.42;30.05
20160;BME280;50187;50.492;12.134;2023-04-09T09:55:42;98439.78;;;21.37;30.07
20160;BME280;50187;50.492;12.134;2023-04-09T09:58:39;98444.28;;;21.46;29.96
20160;BME280;50187;50.492;12.134;2023-04-09T10:01:26;98442.03;;;21.41;30.27
20160;BME280;50187;50.492;12.134;2023-04-09T10:04:14;98433.81;;;21.33;30.52
20160;BME280;50187;50.492;12.134;2023-04-09T10:07:00;98440.78;;;21.36;30.30
20160;BME280;50187;50.492;12.134;2023-04-09T10:09:49;98423.97;;;21.42;30.06
20160;BME280;50187;50.492;12.134;2023-04-09T10:12:36;98431.78;;;21.45;30.13
20160;BME280;50187;50.492;12.134;2023-04-09T10:15:22;98425.22;;;21.48;30.25
20160;BME280;50187;50.492;12.134;2023-04-09T10:18:07;98430.63;;;21.48;30.22
20160;BME280;50187;50.492;12.134;2023-04-09T10:20:58;98407.41;;;21.45;30.22
20160;BME280;50187;50.492;12.134;2023-04-09T10:23:48;98412.22;;;21.51;30.09
20160;BME280;50187;50.492;12.134;2023-04-09T10:26:39;98405.09;;;21.50;30.07
20160;BME280;50187;50.492;12.134;2023-04-09T10:29:30;98412.09;;;21.53;30.07
20160;BME280;50187;50.492;12.134;2023-04-09T10:32:20;98421.63;;;21.47;30.26
20160;BME280;50187;50.492;12.134;2023-04-09T10:35:08;98409.09;;;21.46;30.07
20160;BME280;50187;50.492;12.134;2023-04-09T10:37:53;98407.25;;;21.56;30.17
20160;BME280;50187;50.492;12.134;2023-04-09T10:40:49;98408.91;;;21.57;30.16
20160;BME280;50187;50.492;12.134;2023-04-09T10:43:35;98414.22;;;21.59;29.97
20160;BME280;50187;50.492;12.134;2023-04-09T10:46:29;98403.91;;;21.63;30.01
20160;BME280;50187;50.492;12.134;2023-04-09T10:49:19;98402.34;;;21.60;30.08
20160;BME280;50187;50.492;12.134;2023-04-09T10:52:10;98400.91;;;21.66;30.01
20160;BME280;50187;50.492;12.134;2023-04-09T10:54:57;98409.03;;;21.66;30.05
20160;BME280;50187;50.492;12.134;2023-04-09T10:57:42;98381.16;;;21.55;29.96
20160;BME280;50187;50.492;12.134;2023-04-09T11:00:27;98400.38;;;21.62;30.13
20160;BME280;50187;50.492;12.134;2023-04-09T11:06:08;98396.63;;;21.63;30.06
20160;BME280;50187;50.492;12.134;2023-04-09T11:09:00;98394.53;;;21.57;29.96
20160;BME280;50187;50.492;12.134;2023-04-09T11:11:53;98389.97;;;21.57;30.45
20160;BME280;50187;50.492;12.134;2023-04-09T11:14:38;98386.41;;;21.57;30.19
20160;BME280;50187;50.492;12.134;2023-04-09T11:17:24;98377.31;;;21.48;30.20
20160;BME280;50187;50.492;12.134;2023-04-09T11:20:09;98376.31;;;21.59;30.24
20160;BME280;50187;50.492;12.134;2023-04-09T11:22:55;98383.19;;;21.53;30.05
20160;BME280;50187;50.492;12.134;2023-04-09T11:25:41;98393.56;;;21.48;30.18
20160;BME280;50187;50.492;12.134;2023-04-09T11:28:26;98382.47;;;21.41;30.48
20160;BME280;50187;50.492;12.134;2023-04-09T11:31:11;98382.16;;;21.26;30.36
20160;BME280;50187;50.492;12.134;2023-04-09T11:33:57;98385.91;;;21.16;30.59
20160;BME280;50187;50.492;12.134;2023-04-09T11:36:42;98385.22;;;21.04;30.76
20160;BME280;50187;50.492;12.134;2023-04-09T11:39:27;98378.84;;;20.95;30.97
20160;BME280;50187;50.492;12.134;2023-04-09T11:42:13;98377.28;;;20.92;30.93
20160;BME280;50187;50.492;12.134;2023-04-09T11:44:59;98386.00;;;20.86;31.12
20160;BME280;50187;50.492;12.134;2023-04-09T11:47:48;98376.31;;;20.84;31.18
20160;BME280;50187;50.492;12.134;2023-04-09T11:50:37;98371.09;;;20.72;31.05
20160;BME280;50187;50.492;12.134;2023-04-09T11:53:29;98381.75;;;20.74;31.22
20160;BME280;50187;50.492;12.134;2023-04-09T11:56:15;98382.19;;;20.69;31.10
20160;BME280;50187;50.492;12.134;2023-04-09T11:59:01;98382.34;;;20.68;31.24
20160;BME280;50187;50.492;12.134;2023-04-09T12:01:50;98365.97;;;20.59;31.36
20160;BME280;50187;50.492;12.134;2023-04-09T12:04:35;98382.34;;;20.68;31.24
20160;BME280;50187;50.492;12.134;2023-04-09T12:07:21;98360.84;;;20.56;31.30
20160;BME280;50187;50.492;12.134;2023-04-09T12:10:08;98370.53;;;20.69;31.42
20160;BME280;50187;50.492;12.134;2023-04-09T12:13:02;98368.22;;;20.64;31.30
20160;BME280;50187;50.492;12.134;2023-04-09T12:15:51;98370.38;;;20.61;31.37
20160;BME280;50187;50.492;12.134;2023-04-09T12:18:37;98373.53;;;20.56;31.26
20160;BME280;50187;50.492;12.134;2023-04-09T12:21:23;98383.03;;;20.50;31.37
20160;BME280;50187;50.492;12.134;2023-04-09T12:24:11;98371.13;;;20.43;31.35
20160;BME280;50187;50.492;12.134;2023-04-09T12:26:56;98376.94;;;20.48;31.50
20160;BME280;50187;50.492;12.134;2023-04-09T12:29:42;98369.81;;;20.47;31.66
20160;BME280;50187;50.492;12.134;2023-04-09T12:32:27;98369.00;;;20.47;31.61
20160;BME280;50187;50.492;12.134;2023-04-09T12:35:13;98362.47;;;20.39;31.47
20160;BME280;50187;50.492;12.134;2023-04-09T12:37:59;98377.09;;;20.37;31.56
20160;BME280;50187;50.492;12.134;2023-04-09T12:40:47;98355.78;;;20.34;31.70
20160;BME280;50187;50.492;12.134;2023-04-09T12:43:32;98371.56;;;20.38;31.63
20160;BME280;50187;50.492;12.134;2023-04-09T12:46:18;98364.44;;;20.28;31.63
20160;BME280;50187;50.492;12.134;2023-04-09T12:49:04;98371.00;;;20.35;31.55
20160;BME280;50187;50.492;12.134;2023-04-09T12:51:50;98357.50;;;20.25;31.65
20160;BME280;50187;50.492;12.134;2023-04-09T12:54:35;98360.59;;;20.30;31.69
20160;BME280;50187;50.492;12.134;2023-04-09T12:57:21;98376.41;;;20.35;31.63
20160;BME280;50187;50.492;12.134;2023-04-09T13:00:07;98363.88;;;20.34;31.76
20160;BME280;50187;50.492;12.134;2023-04-09T13:02:54;98360.59;;;20.30;31.47
20160;BME280;50187;50.492;12.134;2023-04-09T13:05:43;98344.00;;;20.15;31.68
20160;BME280;50187;50.492;12.134;2023-04-09T13:08:29;98372.28;;;20.31;31.64
20160;BME280;50187;50.492;12.134;2023-04-09T13:11:15;98352.81;;;20.17;31.74
20160;BME280;50187;50.492;12.134;2023-04-09T13:14:01;98367.03;;;20.29;31.69
20160;BME280;50187;50.492;12.134;2023-04-09T13:16:46;98355.34;;;20.29;31.71
20160;BME280;50187;50.492;12.134;2023-04-09T13:19:43;98298.41;;;20.02;31.59
20160;BME280;50187;50.492;12.134;2023-04-09T13:22:30;98339.28;;;20.27;31.63
20160;BME280;50187;50.492;12.134;2023-04-09T13:25:18;98335.88;;;20.35;31.68
20160;BME280;50187;50.492;12.134;2023-04-09T13:28:03;98332.75;;;20.39;31.68
20160;BME280;50187;50.492;12.134;2023-04-09T13:30:49;98335.59;;;20.38;31.36
20160;BME280;50187;50.492;12.134;2023-04-09T13:33:37;98339.28;;;20.37;31.67
20160;BME280;50187;50.492;12.134;2023-04-09T13:36:25;98334.16;;;20.34;31.66
20160;BME280;50187;50.492;12.134;2023-04-09T13:39:12;98344.97;;;20.34;31.54
20160;BME280;50187;50.492;12.134;2023-04-09T13:41:57;98327.66;;;20.27;31.73
20160;BME280;50187;50.492;12.134;2023-04-09T13:44:43;98329.34;;;20.18;31.74
20160;BME280;50187;50.492;12.134;2023-04-09T13:47:30;98331.03;;;20.29;31.68
20160;BME280;50187;50.492;12.134;2023-04-09T13:50:19;98320.53;;;20.16;31.65
20160;BME280;50187;50.492;12.134;2023-04-09T13:53:05;98323.53;;;20.22;31.64
20160;BME280;50187;50.492;12.134;2023-04-09T13:55:51;98326.78;;;20.26;31.57
20160;BME280;50187;50.492;12.134;2023-04-09T13:58:36;98308.75;;;20.17;31.69
20160;BME280;50187;50.492;12.134;2023-04-09T14:01:21;98311.44;;;20.17;31.72
20160;BME280;50187;50.492;12.134;2023-04-09T14:04:06;98317.84;;;20.16;31.84
20160;BME280;50187;50.492;12.134;2023-04-09T14:06:52;98285.44;;;19.96;31.92
20160;BME280;50187;50.492;12.134;2023-04-09T14:09:38;98317.41;;;20.20;31.70
20160;BME280;50187;50.492;12.134;2023-04-09T14:12:23;98327.22;;;20.21;31.86
20160;BME280;50187;50.492;12.134;2023-04-09T14:15:09;98315.72;;;20.19;31.79
20160;BME280;50187;50.492;12.134;2023-04-09T14:17:54;98311.75;;;20.14;32.02
20160;BME280;50187;50.492;12.134;2023-04-09T14:20:39;98307.31;;;20.13;32.01
20160;BME280;50187;50.492;12.134;2023-04-09T14:23:25;98293.97;;;20.01;32.03
20160;BME280;50187;50.492;12.134;2023-04-09T14:26:17;98310.59;;;20.06;31.95
20160;BME280;50187;50.492;12.134;2023-04-09T14:29:05;98305.19;;;20.06;31.81
20160;BME280;50187;50.492;12.134;2023-04-09T14:31:51;98330.38;;;20.07;31.82
20160;BME280;50187;50.492;12.134;2023-04-09T14:34:38;98297.38;;;20.03;31.84
20160;BME280;50187;50.492;12.134;2023-04-09T14:37:24;98308.59;;;20.08;31.91
20160;BME280;50187;50.492;12.134;2023-04-09T14:40:10;98271.22;;;19.74;31.89
20160;BME280;50187;50.492;12.134;2023-04-09T14:43:05;98293.25;;;19.89;32.07